sensor_id;sensor_type;location;lat;lon;timestamp;P1;durP1;ratioP1;P2;durP2;ratioP2
32393;SDS011;18853;45.426;9.206;2023-02-26T00:00:25;42.97;;;26.40;;
32393;SDS011;18853;45.426;9.206;2023-02-26T00:02:51;41.50;;;27.42;;
32393;SDS011;18853;45.426;9.206;2023-02-26T00:05:17;45.55;;;27.35;;
32393;SDS011;18853;45.426;9.206;2023-02-26T00:07:42;39.50;;;26.38;;
32393;SDS011;18853;45.426;9.206;2023-02-26T00:10:09;42.53;;;26.58;;
32393;SDS011;18853;45.426;9.206;2023-02-26T00:12:37;41.22;;;27.33;;
32393;SDS011;18853;45.426;9.206;2023-02-26T00:15:03;49.47;;;28.90;;
32393;SDS011;18853;45.426;9.206;2023-02-26T00:17:35;45.15;;;28.90;;
32393;SDS011;18853;45.426;9.206;2023-02-26T00:20:04;48.40;;;28.90;;
32393;SDS011;18853;45.426;9.206;2023-02-26T00:22:31;49.83;;;29.27;;
32393;SDS011;18853;45.426;9.206;2023-02-26T00:24:57;40.15;;;28.05;;
32393;SDS011;18853;45.426;9.206;2023-02-26T00:27:23;52.80;;;29.40;;
32393;SDS011;18853;45.426;9.206;2023-02-26T00:29:48;44.85;;;28.83;;
32393;SDS011;18853;45.426;9.206;2023-02-26T00:32:14;48.33;;;29.02;;
32393;SDS011;18853;45.426;9.206;2023-02-26T00:34:42;45.17;;;28.85;;
32393;SDS011;18853;45.426;9.206;2023-02-26T00:39:58;51.17;;;30.02;;
32393;SDS011;18853;45.426;9.206;2023-02-26T00:42:38;49.70;;;30.40;;
32393;SDS011;18853;45.426;9.206;2023-02-26T00:45:04;43.65;;;28.17;;
32393;SDS011;18853;45.426;9.206;2023-02-26T00:47:46;48.53;;;29.65;;
32393;SDS011;18853;45.426;9.206;2023-02-26T00:50:25;53.28;;;30.20;;
32393;SDS011;18853;45.426;9.206;2023-02-26T00:53:00;53.25;;;30.20;;
32393;SDS011;18853;45.426;9.206;2023-02-26T00:55:27;55.90;;;30.92;;
32393;SDS011;18853;45.426;9.206;2023-02-26T00:57:53;45.03;;;30.08;;
32393;SDS011;18853;45.426;9.206;2023-02-26T01:00:19;45.67;;;30.38;;
32393;SDS011;18853;45.426;9.206;2023-02-26T01:02:45;44.75;;;29.70;;
32393;SDS011;18853;45.426;9.206;2023-02-26T01:05:11;44.17;;;29.23;;
32393;SDS011;18853;45.426;9.206;2023-02-26T01:07:46;40.35;;;28.88;;
32393;SDS011;18853;45.426;9.206;2023-02-26T01:10:18;50.10;;;29.35;;
32393;SDS011;18853;45.426;9.206;2023-02-26T01:12:44;45.65;;;29.98;;
32393;SDS011;18853;45.426;9.206;2023-02-26T01:15:10;41.95;;;26.52;;
32393;SDS011;18853;45.426;9.206;2023-02-26T01:17:43;44.72;;;27.23;;
32393;SDS011;18853;45.426;9.206;2023-02-26T01:20:20;39.20;;;26.60;;
32393;SDS011;18853;45.426;9.206;2023-02-26T01:23:02;42.72;;;25.90;;
32393;SDS011;18853;45.426;9.206;2023-02-26T01:25:40;44.17;;;28.05;;
32393;SDS011;18853;45.426;9.206;2023-02-26T01:28:11;47.22;;;28.98;;
32393;SDS011;18853;45.426;9.206;2023-02-26T01:30:37;48.65;;;29.33;;
32393;SDS011;18853;45.426;9.206;2023-02-26T01:36:06;44.92;;;27.92;;
32393;SDS011;18853;45.426;9.206;2023-02-26T01:47:29;48.05;;;30.45;;
32393;SDS011;18853;45.426;9.206;2023-02-26T01:50:16;46.92;;;31.05;;
32393;SDS011;18853;45.426;9.206;2023-02-26T01:55:14;47.60;;;30.02;;
32393;SDS011;18853;45.426;9.206;2023-02-26T01:57:46;49.25;;;31.08;;
32393;SDS011;18853;45.426;9.206;2023-02-26T02:00:13;54.60;;;31.35;;
32393;SDS011;18853;45.426;9.206;2023-02-26T02:02:40;47.58;;;29.45;;
32393;SDS011;18853;45.426;9.206;2023-02-26T02:05:08;46.15;;;30.42;;
32393;SDS011;18853;45.426;9.206;2023-02-26T02:07:39;49.03;;;30.50;;
32393;SDS011;18853;45.426;9.206;2023-02-26T02:10:05;45.50;;;29.38;;
32393;SDS011;18853;45.426;9.206;2023-02-26T02:23:42;45.67;;;29.80;;
32393;SDS011;18853;45.426;9.206;2023-02-26T02:31:59;43.65;;;29.10;;
32393;SDS011;18853;45.426;9.206;2023-02-26T02:34:44;46.83;;;29.67;;
32393;SDS011;18853;45.426;9.206;2023-02-26T02:37:15;46.83;;;29.30;;
32393;SDS011;18853;45.426;9.206;2023-02-26T02:39:56;46.83;;;30.42;;
32393;SDS011;18853;45.426;9.206;2023-02-26T02:45:18;50.35;;;29.90;;
32393;SDS011;18853;45.426;9.206;2023-02-26T02:47:51;47.80;;;28.95;;
32393;SDS011;18853;45.426;9.206;2023-02-26T02:50:24;43.28;;;28.42;;
32393;SDS011;18853;45.426;9.206;2023-02-26T02:52:56;50.42;;;29.33;;
32393;SDS011;18853;45.426;9.206;2023-02-26T02:55:32;45.40;;;28.98;;
32393;SDS011;18853;45.426;9.206;2023-02-26T02:58:03;49.60;;;30.23;;
32393;SDS011;18853;45.426;9.206;2023-02-26T03:00:32;47.90;;;29.70;;
32393;SDS011;18853;45.426;9.206;2023-02-26T03:03:06;40.58;;;26.45;;
32393;SDS011;18853;45.426;9.206;2023-02-26T03:05:45;38.47;;;25.70;;
32393;SDS011;18853;45.426;9.206;2023-02-26T03:08:12;40.13;;;24.98;;
32393;SDS011;18853;45.426;9.206;2023-02-26T03:10:41;36.50;;;25.80;;
32393;SDS011;18853;45.426;9.206;2023-02-26T03:13:14;40.33;;;27.65;;
32393;SDS011;18853;45.426;9.206;2023-02-26T03:15:46;43.13;;;27.50;;
32393;SDS011;18853;45.426;9.206;2023-02-26T03:24:14;39.00;;;25.73;;
32393;SDS011;18853;45.426;9.206;2023-02-26T03:27:12;39.08;;;26.85;;
32393;SDS011;18853;45.426;9.206;2023-02-26T03:35:08;23.92;;;16.58;;
32393;SDS011;18853;45.426;9.206;2023-02-26T03:37:45;17.10;;;14.48;;
32393;SDS011;18853;45.426;9.206;2023-02-26T03:43:19;15.77;;;13.00;;
32393;SDS011;18853;45.426;9.206;2023-02-26T03:45:55;11.68;;;10.43;;
32393;SDS011;18853;45.426;9.206;2023-02-26T03:48:25;14.13;;;11.48;;
32393;SDS011;18853;45.426;9.206;2023-02-26T03:50:53;18.40;;;13.05;;
32393;SDS011;18853;45.426;9.206;2023-02-26T03:53:25;15.43;;;12.10;;
32393;SDS011;18853;45.426;9.206;2023-02-26T03:56:02;19.58;;;14.57;;
32393;SDS011;18853;45.426;9.206;2023-02-26T03:58:42;29.08;;;17.02;;
32393;SDS011;18853;45.426;9.206;2023-02-26T04:01:15;24.80;;;17.58;;
32393;SDS011;18853;45.426;9.206;2023-02-26T04:03:50;25.98;;;17.77;;
32393;SDS011;18853;45.426;9.206;2023-02-26T04:06:21;29.80;;;20.33;;
32393;SDS011;18853;45.426;9.206;2023-02-26T04:08:48;34.72;;;23.08;;
32393;SDS011;18853;45.426;9.206;2023-02-26T04:11:15;39.85;;;22.60;;
32393;SDS011;18853;45.426;9.206;2023-02-26T04:13:43;39.97;;;22.02;;
32393;SDS011;18853;45.426;9.206;2023-02-26T04:16:09;33.80;;;21.92;;
32393;SDS011;18853;45.426;9.206;2023-02-26T04:18:35;38.28;;;22.55;;
32393;SDS011;18853;45.426;9.206;2023-02-26T04:21:01;37.75;;;22.65;;
32393;SDS011;18853;45.426;9.206;2023-02-26T04:23:27;37.63;;;23.35;;
32393;SDS011;18853;45.426;9.206;2023-02-26T04:25:53;38.08;;;23.20;;
32393;SDS011;18853;45.426;9.206;2023-02-26T04:28:18;36.88;;;24.35;;
32393;SDS011;18853;45.426;9.206;2023-02-26T04:30:44;37.28;;;23.25;;
32393;SDS011;18853;45.426;9.206;2023-02-26T04:33:09;42.55;;;25.08;;
32393;SDS011;18853;45.426;9.206;2023-02-26T04:35:36;42.25;;;25.58;;
32393;SDS011;18853;45.426;9.206;2023-02-26T04:38:02;42.70;;;25.75;;
32393;SDS011;18853;45.426;9.206;2023-02-26T04:40:28;43.08;;;26.92;;
32393;SDS011;18853;45.426;9.206;2023-02-26T04:42:53;45.95;;;27.45;;
32393;SDS011;18853;45.426;9.206;2023-02-26T04:45:19;42.40;;;26.50;;
32393;SDS011;18853;45.426;9.206;2023-02-26T04:47:45;42.78;;;27.05;;
32393;SDS011;18853;45.426;9.206;2023-02-26T04:50:10;44.17;;;27.35;;
32393;SDS011;18853;45.426;9.206;2023-02-26T04:52:36;48.63;;;29.50;;
32393;SDS011;18853;45.426;9.206;2023-02-26T04:55:02;47.05;;;28.95;;
32393;SDS011;18853;45.426;9.206;2023-02-26T04:57:28;48.17;;;28.55;;
32393;SDS011;18853;45.426;9.206;2023-02-26T04:59:53;47.83;;;29.20;;
32393;SDS011;18853;45.426;9.206;2023-02-26T05:02:19;52.88;;;30.58;;
32393;SDS011;18853;45.426;9.206;2023-02-26T05:04:45;53.22;;;32.83;;
32393;SDS011;18853;45.426;9.206;2023-02-26T05:07:10;58.22;;;33.83;;
32393;SDS011;18853;45.426;9.206;2023-02-26T05:09:36;57.17;;;34.53;;
32393;SDS011;18853;45.426;9.206;2023-02-26T05:12:01;60.35;;;34.83;;
32393;SDS011;18853;45.426;9.206;2023-02-26T05:14:27;61.40;;;34.95;;
32393;SDS011;18853;45.426;9.206;2023-02-26T05:16:53;59.45;;;34.92;;
32393;SDS011;18853;45.426;9.206;2023-02-26T05:19:18;58.47;;;35.05;;
32393;SDS011;18853;45.426;9.206;2023-02-26T05:21:44;55.92;;;30.98;;
32393;SDS011;18853;45.426;9.206;2023-02-26T05:24:10;42.97;;;26.58;;
32393;SDS011;18853;45.426;9.206;2023-02-26T05:26:35;37.92;;;22.23;;
32393;SDS011;18853;45.426;9.206;2023-02-26T05:29:01;28.70;;;15.40;;
32393;SDS011;18853;45.426;9.206;2023-02-26T05:31:26;25.10;;;12.00;;
32393;SDS011;18853;45.426;9.206;2023-02-26T05:33:52;21.85;;;8.55;;
32393;SDS011;18853;45.426;9.206;2023-02-26T05:36:18;12.85;;;6.72;;
32393;SDS011;18853;45.426;9.206;2023-02-26T05:38:43;10.98;;;5.72;;
32393;SDS011;18853;45.426;9.206;2023-02-26T05:41:09;10.07;;;4.78;;
32393;SDS011;18853;45.426;9.206;2023-02-26T05:43:35;10.23;;;4.53;;
32393;SDS011;18853;45.426;9.206;2023-02-26T05:46:01;12.98;;;5.03;;
32393;SDS011;18853;45.426;9.206;2023-02-26T05:48:26;12.48;;;4.55;;
32393;SDS011;18853;45.426;9.206;2023-02-26T05:50:52;9.75;;;2.80;;
32393;SDS011;18853;45.426;9.206;2023-02-26T05:53:18;5.40;;;2.50;;
32393;SDS011;18853;45.426;9.206;2023-02-26T05:55:44;8.27;;;2.35;;
32393;SDS011;18853;45.426;9.206;2023-02-26T05:58:09;4.95;;;1.90;;
32393;SDS011;18853;45.426;9.206;2023-02-26T06:00:36;7.38;;;2.10;;
32393;SDS011;18853;45.426;9.206;2023-02-26T06:03:02;6.68;;;1.83;;
32393;SDS011;18853;45.426;9.206;2023-02-26T06:05:27;4.03;;;1.60;;
32393;SDS011;18853;45.426;9.206;2023-02-26T06:07:53;3.60;;;1.42;;
32393;SDS011;18853;45.426;9.206;2023-02-26T06:10:18;2.72;;;1.23;;
32393;SDS011;18853;45.426;9.206;2023-02-26T06:12:44;4.20;;;1.23;;
32393;SDS011;18853;45.426;9.206;2023-02-26T06:15:10;3.42;;;1.30;;
32393;SDS011;18853;45.426;9.206;2023-02-26T06:17:36;3.05;;;1.30;;
32393;SDS011;18853;45.426;9.206;2023-02-26T06:20:03;5.85;;;1.73;;
32393;SDS011;18853;45.426;9.206;2023-02-26T06:22:29;3.95;;;1.30;;
32393;SDS011;18853;45.426;9.206;2023-02-26T06:24:55;20.13;;;14.68;;
32393;SDS011;18853;45.426;9.206;2023-02-26T06:27:21;5.25;;;2.10;;
32393;SDS011;18853;45.426;9.206;2023-02-26T06:29:47;4.28;;;1.35;;
32393;SDS011;18853;45.426;9.206;2023-02-26T06:32:12;4.05;;;1.10;;
32393;SDS011;18853;45.426;9.206;2023-02-26T06:34:38;5.78;;;1.40;;
32393;SDS011;18853;45.426;9.206;2023-02-26T06:37:04;4.22;;;1.20;;
32393;SDS011;18853;45.426;9.206;2023-02-26T06:39:29;3.33;;;1.00;;
32393;SDS011;18853;45.426;9.206;2023-02-26T06:41:55;2.50;;;1.10;;
32393;SDS011;18853;45.426;9.206;2023-02-26T06:44:21;4.07;;;1.40;;
32393;SDS011;18853;45.426;9.206;2023-02-26T06:46:46;5.78;;;1.50;;
32393;SDS011;18853;45.426;9.206;2023-02-26T06:49:12;6.18;;;1.73;;
32393;SDS011;18853;45.426;9.206;2023-02-26T06:51:38;1.27;;;0.80;;
32393;SDS011;18853;45.426;9.206;2023-02-26T06:54:04;1.50;;;0.80;;
32393;SDS011;18853;45.426;9.206;2023-02-26T06:56:30;5.78;;;0.95;;
32393;SDS011;18853;45.426;9.206;2023-02-26T06:58:55;3.90;;;0.80;;
32393;SDS011;18853;45.426;9.206;2023-02-26T07:01:21;1.95;;;0.98;;
32393;SDS011;18853;45.426;9.206;2023-02-26T07:03:48;5.20;;;1.20;;
32393;SDS011;18853;45.426;9.206;2023-02-26T07:06:13;87.78;;;57.92;;
32393;SDS011;18853;45.426;9.206;2023-02-26T07:08:40;44.72;;;21.00;;
32393;SDS011;18853;45.426;9.206;2023-02-26T07:11:06;6.30;;;3.30;;
32393;SDS011;18853;45.426;9.206;2023-02-26T07:13:33;10.35;;;3.90;;
32393;SDS011;18853;45.426;9.206;2023-02-26T07:16:00;3.47;;;0.90;;
32393;SDS011;18853;45.426;9.206;2023-02-26T07:18:26;4.47;;;0.98;;
32393;SDS011;18853;45.426;9.206;2023-02-26T07:20:52;5.28;;;2.05;;
32393;SDS011;18853;45.426;9.206;2023-02-26T07:23:17;3.70;;;1.30;;
32393;SDS011;18853;45.426;9.206;2023-02-26T07:25:43;4.47;;;1.67;;
32393;SDS011;18853;45.426;9.206;2023-02-26T07:28:09;1.80;;;0.80;;
32393;SDS011;18853;45.426;9.206;2023-02-26T07:30:34;3.15;;;0.90;;
32393;SDS011;18853;45.426;9.206;2023-02-26T07:33:00;2.47;;;0.73;;
32393;SDS011;18853;45.426;9.206;2023-02-26T07:35:26;2.90;;;0.70;;
32393;SDS011;18853;45.426;9.206;2023-02-26T07:37:52;4.13;;;0.68;;
32393;SDS011;18853;45.426;9.206;2023-02-26T07:40:17;2.50;;;0.70;;
32393;SDS011;18853;45.426;9.206;2023-02-26T07:42:43;1.15;;;0.32;;
32393;SDS011;18853;45.426;9.206;2023-02-26T07:45:09;2.92;;;0.60;;
32393;SDS011;18853;45.426;9.206;2023-02-26T07:47:35;2.85;;;0.65;;
32393;SDS011;18853;45.426;9.206;2023-02-26T07:50:01;1.02;;;0.55;;
32393;SDS011;18853;45.426;9.206;2023-02-26T07:52:27;2.15;;;0.47;;
32393;SDS011;18853;45.426;9.206;2023-02-26T07:54:53;3.03;;;0.95;;
32393;SDS011;18853;45.426;9.206;2023-02-26T07:57:18;4.22;;;1.30;;
32393;SDS011;18853;45.426;9.206;2023-02-26T07:59:44;3.20;;;1.00;;
32393;SDS011;18853;45.426;9.206;2023-02-26T08:02:10;2.17;;;0.77;;
32393;SDS011;18853;45.426;9.206;2023-02-26T08:04:37;1.58;;;0.60;;
32393;SDS011;18853;45.426;9.206;2023-02-26T08:07:03;1.92;;;0.70;;
32393;SDS011;18853;45.426;9.206;2023-02-26T08:09:29;62.70;;;37.22;;
32393;SDS011;18853;45.426;9.206;2023-02-26T08:11:55;2.88;;;1.20;;
32393;SDS011;18853;45.426;9.206;2023-02-26T08:14:21;2.38;;;0.43;;
32393;SDS011;18853;45.426;9.206;2023-02-26T08:16:47;1.48;;;0.68;;
32393;SDS011;18853;45.426;9.206;2023-02-26T08:19:13;1.75;;;0.40;;
32393;SDS011;18853;45.426;9.206;2023-02-26T08:21:38;2.53;;;0.60;;
32393;SDS011;18853;45.426;9.206;2023-02-26T08:24:04;2.42;;;0.32;;
32393;SDS011;18853;45.426;9.206;2023-02-26T08:26:30;2.35;;;0.70;;
32393;SDS011;18853;45.426;9.206;2023-02-26T08:28:59;2.25;;;0.57;;
32393;SDS011;18853;45.426;9.206;2023-02-26T08:31:25;1.98;;;0.45;;
32393;SDS011;18853;45.426;9.206;2023-02-26T08:33:52;1.67;;;0.50;;
32393;SDS011;18853;45.426;9.206;2023-02-26T08:36:18;3.00;;;0.52;;
32393;SDS011;18853;45.426;9.206;2023-02-26T08:38:45;1.15;;;0.50;;
32393;SDS011;18853;45.426;9.206;2023-02-26T08:41:12;1.85;;;1.00;;
32393;SDS011;18853;45.426;9.206;2023-02-26T08:43:40;2.97;;;0.77;;
32393;SDS011;18853;45.426;9.206;2023-02-26T08:46:06;3.30;;;0.93;;
32393;SDS011;18853;45.426;9.206;2023-02-26T08:48:32;3.33;;;0.80;;
32393;SDS011;18853;45.426;9.206;2023-02-26T08:50:57;2.65;;;0.50;;
32393;SDS011;18853;45.426;9.206;2023-02-26T08:53:23;0.70;;;0.30;;
32393;SDS011;18853;45.426;9.206;2023-02-26T08:55:49;1.70;;;0.60;;
32393;SDS011;18853;45.426;9.206;2023-02-26T08:58:16;0.80;;;0.30;;
32393;SDS011;18853;45.426;9.206;2023-02-26T09:00:42;2.53;;;0.50;;
32393;SDS011;18853;45.426;9.206;2023-02-26T09:03:08;3.03;;;0.70;;
32393;SDS011;18853;45.426;9.206;2023-02-26T09:05:34;1.98;;;0.55;;
32393;SDS011;18853;45.426;9.206;2023-02-26T09:07:59;0.85;;;0.43;;
32393;SDS011;18853;45.426;9.206;2023-02-26T09:10:25;2.63;;;0.52;;
32393;SDS011;18853;45.426;9.206;2023-02-26T09:12:50;2.08;;;0.50;;
32393;SDS011;18853;45.426;9.206;2023-02-26T09:15:16;3.60;;;0.50;;
32393;SDS011;18853;45.426;9.206;2023-02-26T09:17:42;1.20;;;0.50;;
32393;SDS011;18853;45.426;9.206;2023-02-26T09:20:08;1.58;;;0.45;;
32393;SDS011;18853;45.426;9.206;2023-02-26T09:22:34;5.00;;;1.40;;
32393;SDS011;18853;45.426;9.206;2023-02-26T09:25:00;6.05;;;2.42;;
32393;SDS011;18853;45.426;9.206;2023-02-26T09:27:27;4.97;;;1.88;;
32393;SDS011;18853;45.426;9.206;2023-02-26T09:29:52;7.35;;;3.15;;
32393;SDS011;18853;45.426;9.206;2023-02-26T09:32:18;3.92;;;1.60;;
32393;SDS011;18853;45.426;9.206;2023-02-26T09:34:44;12.63;;;7.43;;
32393;SDS011;18853;45.426;9.206;2023-02-26T09:37:10;6.72;;;2.22;;
32393;SDS011;18853;45.426;9.206;2023-02-26T09:39:35;3.00;;;1.27;;
32393;SDS011;18853;45.426;9.206;2023-02-26T09:42:06;4.10;;;1.55;;
32393;SDS011;18853;45.426;9.206;2023-02-26T09:44:39;8.20;;;2.42;;
32393;SDS011;18853;45.426;9.206;2023-02-26T09:54:47;4.03;;;1.42;;
32393;SDS011;18853;45.426;9.206;2023-02-26T09:57:23;2.00;;;0.70;;
32393;SDS011;18853;45.426;9.206;2023-02-26T09:59:55;2.88;;;0.98;;
32393;SDS011;18853;45.426;9.206;2023-02-26T10:07:57;3.30;;;1.10;;
32393;SDS011;18853;45.426;9.206;2023-02-26T10:10:34;3.13;;;1.20;;
32393;SDS011;18853;45.426;9.206;2023-02-26T10:13:18;1.60;;;0.85;;
32393;SDS011;18853;45.426;9.206;2023-02-26T10:15:51;2.55;;;1.02;;
32393;SDS011;18853;45.426;9.206;2023-02-26T10:18:29;2.15;;;1.08;;
32393;SDS011;18853;45.426;9.206;2023-02-26T10:26:30;3.17;;;1.02;;
32393;SDS011;18853;45.426;9.206;2023-02-26T10:34:24;2.17;;;0.77;;
32393;SDS011;18853;45.426;9.206;2023-02-26T10:42:44;2.47;;;1.05;;
32393;SDS011;18853;45.426;9.206;2023-02-26T10:48:21;2.13;;;0.80;;
32393;SDS011;18853;45.426;9.206;2023-02-26T10:51:35;2.53;;;1.00;;
32393;SDS011;18853;45.426;9.206;2023-02-26T10:56:51;2.55;;;0.80;;
32393;SDS011;18853;45.426;9.206;2023-02-26T10:59:17;3.80;;;0.93;;
32393;SDS011;18853;45.426;9.206;2023-02-26T11:01:43;1.83;;;0.90;;
32393;SDS011;18853;45.426;9.206;2023-02-26T11:04:17;2.53;;;0.75;;
32393;SDS011;18853;45.426;9.206;2023-02-26T11:06:51;1.90;;;1.00;;
32393;SDS011;18853;45.426;9.206;2023-02-26T11:12:14;1.85;;;0.80;;
32393;SDS011;18853;45.426;9.206;2023-02-26T11:14:41;2.30;;;1.00;;
32393;SDS011;18853;45.426;9.206;2023-02-26T11:17:11;2.83;;;1.30;;
32393;SDS011;18853;45.426;9.206;2023-02-26T11:19:42;2.00;;;0.93;;
32393;SDS011;18853;45.426;9.206;2023-02-26T11:22:31;2.38;;;1.10;;
32393;SDS011;18853;45.426;9.206;2023-02-26T11:25:00;2.60;;;0.98;;
32393;SDS011;18853;45.426;9.206;2023-02-26T11:27:30;2.53;;;1.20;;
32393;SDS011;18853;45.426;9.206;2023-02-26T11:30:14;8.50;;;4.15;;
32393;SDS011;18853;45.426;9.206;2023-02-26T11:32:44;2.50;;;1.13;;
32393;SDS011;18853;45.426;9.206;2023-02-26T11:35:14;2.45;;;1.13;;
32393;SDS011;18853;45.426;9.206;2023-02-26T11:37:46;3.17;;;1.38;;
32393;SDS011;18853;45.426;9.206;2023-02-26T11:40:18;3.05;;;1.40;;
32393;SDS011;18853;45.426;9.206;2023-02-26T11:42:54;2.42;;;0.95;;
32393;SDS011;18853;45.426;9.206;2023-02-26T11:45:23;2.00;;;1.10;;
32393;SDS011;18853;45.426;9.206;2023-02-26T11:47:54;1.98;;;1.08;;
32393;SDS011;18853;45.426;9.206;2023-02-26T11:50:26;2.25;;;1.10;;
32393;SDS011;18853;45.426;9.206;2023-02-26T11:52:54;2.47;;;1.10;;
32393;SDS011;18853;45.426;9.206;2023-02-26T11:55:32;2.08;;;1.05;;
32393;SDS011;18853;45.426;9.206;2023-02-26T11:58:00;1.55;;;0.80;;
32393;SDS011;18853;45.426;9.206;2023-02-26T12:00:38;2.08;;;1.20;;
32393;SDS011;18853;45.426;9.206;2023-02-26T12:03:06;1.60;;;0.70;;
32393;SDS011;18853;45.426;9.206;2023-02-26T12:05:40;2.75;;;1.15;;
32393;SDS011;18853;45.426;9.206;2023-02-26T12:08:39;4.00;;;1.40;;
32393;SDS011;18853;45.426;9.206;2023-02-26T12:11:29;2.85;;;1.60;;
32393;SDS011;18853;45.426;9.206;2023-02-26T12:14:00;2.70;;;1.35;;
32393;SDS011;18853;45.426;9.206;2023-02-26T12:27:28;2.60;;;1.45;;
32393;SDS011;18853;45.426;9.206;2023-02-26T12:38:07;2.90;;;1.45;;
32393;SDS011;18853;45.426;9.206;2023-02-26T12:40:46;3.60;;;1.65;;
32393;SDS011;18853;45.426;9.206;2023-02-26T12:46:38;3.20;;;1.88;;
32393;SDS011;18853;45.426;9.206;2023-02-26T12:52:09;3.55;;;1.52;;
32393;SDS011;18853;45.426;9.206;2023-02-26T12:55:05;3.33;;;1.50;;
32393;SDS011;18853;45.426;9.206;2023-02-26T12:57:45;4.10;;;1.83;;
32393;SDS011;18853;45.426;9.206;2023-02-26T13:05:43;4.95;;;1.42;;
32393;SDS011;18853;45.426;9.206;2023-02-26T13:08:40;4.15;;;1.70;;
32393;SDS011;18853;45.426;9.206;2023-02-26T13:16:59;3.38;;;1.60;;
32393;SDS011;18853;45.426;9.206;2023-02-26T13:19:43;4.70;;;1.90;;
32393;SDS011;18853;45.426;9.206;2023-02-26T13:32:41;2.67;;;1.45;;
32393;SDS011;18853;45.426;9.206;2023-02-26T13:35:19;2.50;;;1.60;;
32393;SDS011;18853;45.426;9.206;2023-02-26T13:37:53;3.30;;;1.70;;
32393;SDS011;18853;45.426;9.206;2023-02-26T13:50:52;2.95;;;1.90;;
32393;SDS011;18853;45.426;9.206;2023-02-26T13:55:48;4.38;;;1.55;;
32393;SDS011;18853;45.426;9.206;2023-02-26T14:03:35;3.05;;;1.50;;
32393;SDS011;18853;45.426;9.206;2023-02-26T14:19:27;3.13;;;1.90;;
32393;SDS011;18853;45.426;9.206;2023-02-26T14:22:01;3.40;;;1.80;;
32393;SDS011;18853;45.426;9.206;2023-02-26T14:24:37;4.63;;;2.13;;
32393;SDS011;18853;45.426;9.206;2023-02-26T14:29:43;3.22;;;1.70;;
32393;SDS011;18853;45.426;9.206;2023-02-26T14:34:58;4.28;;;2.15;;
32393;SDS011;18853;45.426;9.206;2023-02-26T14:37:48;3.30;;;1.70;;
32393;SDS011;18853;45.426;9.206;2023-02-26T14:40:25;4.40;;;1.90;;
32393;SDS011;18853;45.426;9.206;2023-02-26T14:42:55;4.15;;;2.10;;
32393;SDS011;18853;45.426;9.206;2023-02-26T14:47:51;4.72;;;1.77;;
32393;SDS011;18853;45.426;9.206;2023-02-26T14:50:20;18.73;;;12.85;;
32393;SDS011;18853;45.426;9.206;2023-02-26T15:01:48;2.83;;;1.88;;
32393;SDS011;18853;45.426;9.206;2023-02-26T15:12:44;2.67;;;1.52;;
32393;SDS011;18853;45.426;9.206;2023-02-26T15:20:54;3.00;;;1.45;;
32393;SDS011;18853;45.426;9.206;2023-02-26T15:23:38;2.65;;;1.33;;
32393;SDS011;18853;45.426;9.206;2023-02-26T15:26:07;5.13;;;1.55;;
32393;SDS011;18853;45.426;9.206;2023-02-26T15:28:45;2.88;;;1.50;;
32393;SDS011;18853;45.426;9.206;2023-02-26T15:31:11;1.98;;;1.30;;
32393;SDS011;18853;45.426;9.206;2023-02-26T15:33:37;4.63;;;1.48;;
32393;SDS011;18853;45.426;9.206;2023-02-26T15:36:08;3.22;;;1.70;;
32393;SDS011;18853;45.426;9.206;2023-02-26T15:38:41;2.88;;;1.40;;
32393;SDS011;18853;45.426;9.206;2023-02-26T15:41:10;2.58;;;1.23;;
32393;SDS011;18853;45.426;9.206;2023-02-26T15:43:36;2.67;;;1.38;;
32393;SDS011;18853;45.426;9.206;2023-02-26T15:46:04;3.38;;;1.50;;
32393;SDS011;18853;45.426;9.206;2023-02-26T15:48:32;3.40;;;1.50;;
32393;SDS011;18853;45.426;9.206;2023-02-26T15:51:06;3.10;;;1.83;;
32393;SDS011;18853;45.426;9.206;2023-02-26T15:53:39;5.82;;;1.95;;
32393;SDS011;18853;45.426;9.206;2023-02-26T15:56:11;5.10;;;1.88;;
32393;SDS011;18853;45.426;9.206;2023-02-26T15:58:44;3.20;;;1.90;;
32393;SDS011;18853;45.426;9.206;2023-02-26T16:01:15;3.00;;;1.60;;
32393;SDS011;18853;45.426;9.206;2023-02-26T16:03:42;3.30;;;1.73;;
32393;SDS011;18853;45.426;9.206;2023-02-26T16:06:12;2.70;;;1.30;;
32393;SDS011;18853;45.426;9.206;2023-02-26T16:08:42;3.30;;;1.30;;
32393;SDS011;18853;45.426;9.206;2023-02-26T16:11:07;3.75;;;1.50;;
32393;SDS011;18853;45.426;9.206;2023-02-26T16:13:35;3.28;;;1.20;;
32393;SDS011;18853;45.426;9.206;2023-02-26T16:16:04;1.98;;;1.25;;
32393;SDS011;18853;45.426;9.206;2023-02-26T16:18:39;2.50;;;1.25;;
32393;SDS011;18853;45.426;9.206;2023-02-26T16:21:06;5.10;;;1.50;;
32393;SDS011;18853;45.426;9.206;2023-02-26T16:26:18;2.78;;;1.20;;
32393;SDS011;18853;45.426;9.206;2023-02-26T16:28:47;2.60;;;1.23;;
32393;SDS011;18853;45.426;9.206;2023-02-26T16:31:18;1.88;;;1.15;;
32393;SDS011;18853;45.426;9.206;2023-02-26T16:34:06;2.42;;;1.38;;
32393;SDS011;18853;45.426;9.206;2023-02-26T16:36:54;2.28;;;1.30;;
32393;SDS011;18853;45.426;9.206;2023-02-26T16:39:24;4.90;;;1.20;;
32393;SDS011;18853;45.426;9.206;2023-02-26T16:42:15;2.88;;;1.30;;
32393;SDS011;18853;45.426;9.206;2023-02-26T16:44:50;3.03;;;1.30;;
32393;SDS011;18853;45.426;9.206;2023-02-26T16:47:25;1.98;;;1.27;;
32393;SDS011;18853;45.426;9.206;2023-02-26T16:49:55;2.58;;;1.40;;
32393;SDS011;18853;45.426;9.206;2023-02-26T16:52:22;3.05;;;1.20;;
32393;SDS011;18853;45.426;9.206;2023-02-26T16:54:55;1.95;;;1.20;;
32393;SDS011;18853;45.426;9.206;2023-02-26T16:57:34;2.28;;;1.33;;
32393;SDS011;18853;45.426;9.206;2023-02-26T17:00:10;2.58;;;1.30;;
32393;SDS011;18853;45.426;9.206;2023-02-26T17:02:44;2.67;;;1.60;;
32393;SDS011;18853;45.426;9.206;2023-02-26T17:05:25;2.75;;;1.17;;
32393;SDS011;18853;45.426;9.206;2023-02-26T17:08:04;2.47;;;1.40;;
32393;SDS011;18853;45.426;9.206;2023-02-26T17:10:34;1.92;;;1.27;;
32393;SDS011;18853;45.426;9.206;2023-02-26T17:15:38;3.08;;;1.45;;
32393;SDS011;18853;45.426;9.206;2023-02-26T17:18:05;2.25;;;1.30;;
32393;SDS011;18853;45.426;9.206;2023-02-26T17:20:32;2.47;;;1.40;;
32393;SDS011;18853;45.426;9.206;2023-02-26T17:22:59;2.88;;;1.55;;
32393;SDS011;18853;45.426;9.206;2023-02-26T17:25:29;4.00;;;1.52;;
32393;SDS011;18853;45.426;9.206;2023-02-26T17:27:58;1.90;;;1.20;;
32393;SDS011;18853;45.426;9.206;2023-02-26T17:30:26;4.07;;;1.40;;
32393;SDS011;18853;45.426;9.206;2023-02-26T17:32:55;4.40;;;2.80;;
32393;SDS011;18853;45.426;9.206;2023-02-26T17:35:22;4.03;;;2.13;;
32393;SDS011;18853;45.426;9.206;2023-02-26T17:37:47;3.10;;;1.85;;
32393;SDS011;18853;45.426;9.206;2023-02-26T17:40:16;3.08;;;1.75;;
32393;SDS011;18853;45.426;9.206;2023-02-26T17:42:45;4.50;;;2.40;;
32393;SDS011;18853;45.426;9.206;2023-02-26T17:45:11;4.30;;;2.40;;
32393;SDS011;18853;45.426;9.206;2023-02-26T17:47:38;4.70;;;2.25;;
32393;SDS011;18853;45.426;9.206;2023-02-26T17:50:14;4.72;;;2.00;;
32393;SDS011;18853;45.426;9.206;2023-02-26T17:52:59;2.40;;;1.40;;
32393;SDS011;18853;45.426;9.206;2023-02-26T17:55:24;4.65;;;1.10;;
32393;SDS011;18853;45.426;9.206;2023-02-26T17:57:50;4.72;;;1.50;;
32393;SDS011;18853;45.426;9.206;2023-02-26T18:00:16;3.53;;;1.40;;
32393;SDS011;18853;45.426;9.206;2023-02-26T18:02:43;3.30;;;1.40;;
32393;SDS011;18853;45.426;9.206;2023-02-26T18:05:09;3.03;;;1.48;;
32393;SDS011;18853;45.426;9.206;2023-02-26T18:07:35;4.00;;;1.60;;
32393;SDS011;18853;45.426;9.206;2023-02-26T18:10:01;4.20;;;1.73;;
32393;SDS011;18853;45.426;9.206;2023-02-26T18:12:27;3.38;;;1.58;;
32393;SDS011;18853;45.426;9.206;2023-02-26T18:14:53;2.85;;;1.35;;
32393;SDS011;18853;45.426;9.206;2023-02-26T18:17:26;6.50;;;1.73;;